Time;durP1;ratioP1;P1;durP2;ratioP2;P2;SDS_P1;SDS_P2;PMS_P1;PMS_P2;Temp;Humidity;BMP_temperature;BMP_pressure;BME280_temperature;BME280_humidity;BME280_pressure;Samples;Min_cycle;Max_cycle;Signal;HPM_P1;HPM_P2
2023/01/15 00:01:30;;;;;;;;;58.25;43.25;;;;;;;;5061468;28;51190;-50
2023/01/15 00:04:14;;;;;;;;;58.75;43.25;;;;;;;;5058543;28;51106;-48
2023/01/15 00:06:58;;;;;;;;;39.00;35.25;;;;;;;;5061432;28;51117;-49
2023/01/15 00:09:43;;;;;;;;;46.00;34.75;;;;;;;;5061091;28;51114;-52
2023/01/15 00:12:27;;;;;;;;;57.50;42.75;;;;;;;;5061108;28;51011;-49
2023/01/15 00:15:11;;;;;;;;;45.75;34.50;;;;;;;;5061248;28;51588;-50
2023/01/15 00:17:56;;;;;;;;;60.50;43.50;;;;;;;;5074245;27;51150;-48
2023/01/15 00:20:40;;;;;;;;;50.75;38.50;;;;;;;;5081487;27;51093;-49
2023/01/15 00:29:33;;;;;;;;;44.75;36.25;;;;;;;;5081169;27;51082;-49
2023/01/15 00:32:17;;;;;;;;;54.00;41.50;;;;;;;;5077912;27;51244;-53
2023/01/15 00:35:02;;;;;;;;;57.50;42.75;;;;;;;;5080860;27;51045;-55
2023/01/15 00:37:46;;;;;;;;;58.25;44.50;;;;;;;;5058241;28;53185;-49
2023/01/15 00:40:30;;;;;;;;;54.50;41.75;;;;;;;;5060061;28;51063;-52
2023/01/15 00:43:15;;;;;;;;;53.00;41.75;;;;;;;;5060051;28;51099;-50
2023/01/15 00:46:00;;;;;;;;;59.00;42.50;;;;;;;;5060600;28;51190;-48
2023/01/15 00:48:44;;;;;;;;;52.50;41.50;;;;;;;;5060356;28;51011;-55
2023/01/15 00:51:28;;;;;;;;;58.25;42.00;;;;;;;;5060159;28;51132;-50
2023/01/15 00:54:12;;;;;;;;;59.75;42.50;;;;;;;;5060440;28;51110;-54
2023/01/15 00:56:57;;;;;;;;;55.50;42.00;;;;;;;;5060804;28;51015;-50
2023/01/15 00:59:41;;;;;;;;;62.50;43.75;;;;;;;;5060306;28;51557;-49
2023/01/15 01:02:26;;;;;;;;;58.00;43.00;;;;;;;;5070642;27;51173;-53
2023/01/15 01:05:10;;;;;;;;;56.50;43.25;;;;;;;;5059277;28;51506;-52
2023/01/15 01:07:54;;;;;;;;;57.75;43.25;;;;;;;;5056353;28;51075;-48
2023/01/15 01:10:39;;;;;;;;;55.25;41.25;;;;;;;;5058160;28;51080;-50
2023/01/15 01:13:23;;;;;;;;;52.50;41.75;;;;;;;;5059634;28;51341;-51
2023/01/15 01:16:36;;;;;;;;;54.75;42.25;;;;;;;;5046548;28;51135;-48
2023/01/15 01:19:22;;;;;;;;;57.25;41.50;;;;;;;;5059597;28;51272;-51
2023/01/15 01:22:06;;;;;;;;;52.00;40.75;;;;;;;;5059713;28;51182;-51
2023/01/15 01:24:50;;;;;;;;;55.50;42.25;;;;;;;;5059783;28;51130;-50
2023/01/15 01:27:35;;;;;;;;;59.25;43.50;;;;;;;;5059752;28;51191;-50
2023/01/15 01:30:19;;;;;;;;;53.00;40.75;;;;;;;;5059176;28;51566;-52
2023/01/15 01:33:04;;;;;;;;;56.75;41.50;;;;;;;;5059664;28;51035;-49
2023/01/15 01:35:49;;;;;;;;;52.00;41.50;;;;;;;;5059972;28;51137;-46
2023/01/15 01:38:33;;;;;;;;;55.50;42.25;;;;;;;;5057887;28;51487;-53
2023/01/15 01:41:18;;;;;;;;;54.75;41.00;;;;;;;;5057100;28;51693;-49
2023/01/15 01:44:04;;;;;;;;;55.50;42.00;;;;;;;;5057199;28;51066;-52
2023/01/15 01:46:48;;;;;;;;;54.75;41.25;;;;;;;;5060822;27;51149;-49
2023/01/15 01:49:33;;;;;;;;;58.00;42.00;;;;;;;;5057392;28;51484;-50
2023/01/15 01:52:24;;;;;;;;;53.75;41.00;;;;;;;;5058311;28;51401;-53
2023/01/15 01:55:10;;;;;;;;;57.25;42.50;;;;;;;;5057544;28;51202;-52
2023/01/15 01:57:57;;;;;;;;;55.00;40.00;;;;;;;;5057908;28;51186;-50
2023/01/15 02:00:44;;;;;;;;;55.75;41.75;;;;;;;;5058214;28;51094;-52
2023/01/15 02:03:34;;;;;;;;;52.50;40.25;;;;;;;;5056360;28;51174;-49
2023/01/15 02:06:19;;;;;;;;;52.25;41.25;;;;;;;;5058445;28;51138;-50
2023/01/15 02:09:03;;;;;;;;;56.75;42.00;;;;;;;;5057135;28;51118;-49
2023/01/15 02:11:49;;;;;;;;;54.00;40.25;;;;;;;;5057788;28;51045;-53
2023/01/15 02:14:52;;;;;;;;;61.00;43.00;;;;;;;;5058451;28;51537;-50
2023/01/15 02:17:48;;;;;;;;;56.50;40.50;;;;;;;;5057255;28;51364;-51
2023/01/15 02:20:33;;;;;;;;;59.25;40.25;;;;;;;;5057346;28;51269;-52
2023/01/15 02:23:29;;;;;;;;;49.75;36.00;;;;;;;;5056932;28;51169;-50
2023/01/15 02:26:14;;;;;;;;;59.25;43.25;;;;;;;;5057114;28;51151;-50
2023/01/15 02:28:59;;;;;;;;;51.25;41.25;;;;;;;;5055623;28;51105;-51
2023/01/15 02:31:48;;;;;;;;;55.00;42.00;;;;;;;;5057472;28;51641;-50
2023/01/15 02:34:35;;;;;;;;;54.50;40.25;;;;;;;;5057696;28;51317;-50
2023/01/15 02:37:27;;;;;;;;;51.00;38.00;;;;;;;;5058260;28;51118;-52
2023/01/15 02:40:12;;;;;;;;;55.75;38.00;;;;;;;;5055782;28;51114;-51
2023/01/15 02:42:58;;;;;;;;;57.50;41.50;;;;;;;;5057343;28;51150;-53
2023/01/15 02:45:44;;;;;;;;;53.50;38.75;;;;;;;;5056101;28;51152;-51
2023/01/15 02:48:31;;;;;;;;;57.00;38.50;;;;;;;;5057998;28;51470;-51
2023/01/15 02:51:17;;;;;;;;;52.25;40.50;;;;;;;;5056340;28;51228;-51
2023/01/15 02:54:04;;;;;;;;;54.00;42.25;;;;;;;;5057207;28;51204;-54
2023/01/15 02:56:50;;;;;;;;;55.25;38.75;;;;;;;;5056170;28;51560;-51
2023/01/15 02:59:39;;;;;;;;;56.00;41.75;;;;;;;;5056647;28;51087;-48
2023/01/15 03:02:27;;;;;;;;;56.50;41.00;;;;;;;;5057621;28;51059;-51
2023/01/15 03:05:16;;;;;;;;;53.00;40.75;;;;;;;;5055410;28;51180;-51
2023/01/15 03:08:02;;;;;;;;;50.50;39.50;;;;;;;;5057325;28;51147;-53
2023/01/15 03:10:52;;;;;;;;;53.50;40.00;;;;;;;;5055904;28;51840;-49
2023/01/15 03:13:50;;;;;;;;;50.00;38.75;;;;;;;;5057157;28;51824;-53
2023/01/15 03:16:39;;;;;;;;;55.25;40.75;;;;;;;;5060781;28;51175;-50
2023/01/15 03:19:30;;;;;;;;;56.75;41.75;;;;;;;;5059534;28;51181;-52
2023/01/15 03:22:32;;;;;;;;;56.75;41.25;;;;;;;;5060204;28;51593;-51
2023/01/15 03:25:25;;;;;;;;;51.00;39.75;;;;;;;;5060449;28;51125;-50
2023/01/15 03:28:11;;;;;;;;;51.25;38.75;;;;;;;;5060718;28;51282;-50
2023/01/15 03:30:55;;;;;;;;;53.75;42.50;;;;;;;;5060537;28;51098;-51
2023/01/15 03:33:40;;;;;;;;;56.50;41.25;;;;;;;;5059457;28;51105;-49
2023/01/15 03:36:25;;;;;;;;;52.00;41.50;;;;;;;;5056228;28;51680;-54
2023/01/15 03:39:09;;;;;;;;;52.25;39.25;;;;;;;;5060204;28;51251;-50
2023/01/15 03:41:54;;;;;;;;;62.25;45.50;;;;;;;;5057973;28;51113;-50
2023/01/15 03:44:55;;;;;;;;;52.50;40.75;;;;;;;;5060239;28;51008;-48
2023/01/15 03:48:00;;;;;;;;;54.00;39.75;;;;;;;;5059440;28;51221;-50
2023/01/15 03:50:48;;;;;;;;;51.50;40.50;;;;;;;;5059858;28;51239;-51
2023/01/15 03:53:39;;;;;;;;;52.75;38.75;;;;;;;;5064114;27;51248;-49
2023/01/15 03:56:23;;;;;;;;;53.75;41.00;;;;;;;;5061412;27;51247;-49
2023/01/15 03:59:16;;;;;;;;;51.00;38.50;;;;;;;;5059563;28;51181;-49
2023/01/15 04:02:02;;;;;;;;;62.25;48.00;;;;;;;;5059431;28;51155;-54
2023/01/15 04:04:48;;;;;;;;;71.00;51.75;;;;;;;;5059593;28;51094;-52
2023/01/15 04:07:32;;;;;;;;;75.25;56.25;;;;;;;;5058987;28;51133;-50
2023/01/15 04:10:17;;;;;;;;;67.75;52.25;;;;;;;;5059614;28;51126;-49
2023/01/15 04:13:01;;;;;;;;;74.25;54.75;;;;;;;;5059387;28;51161;-54
2023/01/15 04:15:46;;;;;;;;;73.25;52.75;;;;;;;;5058796;28;51210;-51
2023/01/15 04:18:30;;;;;;;;;68.75;53.50;;;;;;;;5057441;28;51167;-51
2023/01/15 04:21:15;;;;;;;;;75.00;53.50;;;;;;;;5058882;28;51208;-51
2023/01/15 04:23:59;;;;;;;;;69.25;51.75;;;;;;;;5057271;28;51135;-55
2023/01/15 04:26:44;;;;;;;;;72.25;52.75;;;;;;;;5058741;28;51706;-50
2023/01/15 04:29:28;;;;;;;;;67.00;51.50;;;;;;;;5058894;28;51232;-51
2023/01/15 04:32:12;;;;;;;;;71.25;51.75;;;;;;;;5059071;28;51104;-55
2023/01/15 04:34:57;;;;;;;;;73.25;51.75;;;;;;;;5059304;28;51872;-50
2023/01/15 04:37:42;;;;;;;;;75.00;53.75;;;;;;;;5059040;28;51632;-54
2023/01/15 04:46:42;;;;;;;;;78.00;57.50;;;;;;;;5058578;28;51529;-50
2023/01/15 04:49:26;;;;;;;;;60.00;47.25;;;;;;;;5057872;28;51057;-49
2023/01/15 04:52:11;;;;;;;;;69.75;51.00;;;;;;;;5058754;28;51811;-52
2023/01/15 04:54:55;;;;;;;;;63.00;48.50;;;;;;;;5060663;28;51155;-57
2023/01/15 04:57:40;;;;;;;;;69.50;51.25;;;;;;;;5058221;28;51206;-53
2023/01/15 05:00:24;;;;;;;;;64.00;43.25;;;;;;;;5059389;28;51263;-51
2023/01/15 05:03:08;;;;;;;;;68.25;51.50;;;;;;;;5054569;28;52235;-54
2023/01/15 05:05:53;;;;;;;;;73.25;52.25;;;;;;;;5058366;28;51219;-53
2023/01/15 05:08:37;;;;;;;;;71.25;51.75;;;;;;;;5058807;28;51129;-51
2023/01/15 05:11:22;;;;;;;;;64.25;49.00;;;;;;;;5057970;28;51164;-52
2023/01/15 05:14:07;;;;;;;;;70.75;52.25;;;;;;;;5057587;28;51276;-49
2023/01/15 05:16:51;;;;;;;;;66.75;50.25;;;;;;;;5058179;28;51175;-51
2023/01/15 05:19:35;;;;;;;;;68.00;51.75;;;;;;;;5057008;28;51291;-48
2023/01/15 05:22:20;;;;;;;;;67.50;50.25;;;;;;;;5058398;28;51172;-47
2023/01/15 05:25:05;;;;;;;;;68.25;49.75;;;;;;;;5058581;28;51137;-53
2023/01/15 05:27:49;;;;;;;;;72.75;52.75;;;;;;;;5058058;28;51203;-50
2023/01/15 05:30:33;;;;;;;;;69.25;50.75;;;;;;;;5057889;28;51224;-51
2023/01/15 05:33:18;;;;;;;;;73.25;51.00;;;;;;;;5058987;28;51140;-49
2023/01/15 05:36:06;;;;;;;;;66.50;51.00;;;;;;;;5057241;28;51440;-50
2023/01/15 05:38:51;;;;;;;;;71.00;53.00;;;;;;;;5056874;28;51164;-54
2023/01/15 05:41:51;;;;;;;;;69.25;51.50;;;;;;;;5057927;28;51543;-56
2023/01/15 05:44:35;;;;;;;;;66.50;51.25;;;;;;;;5055269;28;51293;-52
2023/01/15 05:47:20;;;;;;;;;63.50;46.50;;;;;;;;5055886;28;51466;-47
2023/01/15 05:50:04;;;;;;;;;66.00;50.25;;;;;;;;5057687;28;51164;-53
2023/01/15 05:52:49;;;;;;;;;68.50;49.75;;;;;;;;5057983;28;51279;-52
2023/01/15 05:55:33;;;;;;;;;76.75;58.00;;;;;;;;5057465;28;51086;-52
2023/01/15 05:58:18;;;;;;;;;70.50;56.50;;;;;;;;5058944;28;51015;-51
2023/01/15 06:01:07;;;;;;;;;73.25;54.00;;;;;;;;5057502;28;51516;-51
2023/01/15 06:03:53;;;;;;;;;72.00;53.00;;;;;;;;5057887;28;51120;-52
2023/01/15 06:06:38;;;;;;;;;70.50;54.75;;;;;;;;5057259;28;51103;-51
2023/01/15 06:09:23;;;;;;;;;80.75;62.00;;;;;;;;5057054;28;51086;-49
2023/01/15 06:12:07;;;;;;;;;74.75;56.00;;;;;;;;5057582;28;51146;-51
2023/01/15 06:14:52;;;;;;;;;75.00;57.50;;;;;;;;5057367;28;51105;-54
2023/01/15 06:17:36;;;;;;;;;74.75;62.25;;;;;;;;5056268;28;52502;-50
2023/01/15 06:20:20;;;;;;;;;81.25;68.50;;;;;;;;5054625;28;51084;-55
2023/01/15 06:23:05;;;;;;;;;79.00;66.50;;;;;;;;5057220;28;51066;-50
2023/01/15 06:25:49;;;;;;;;;80.50;65.50;;;;;;;;5057940;28;51743;-53
2023/01/15 06:28:34;;;;;;;;;82.00;68.25;;;;;;;;5054662;28;51236;-54
2023/01/15 06:31:19;;;;;;;;;77.50;65.50;;;;;;;;5057257;28;51623;-50
2023/01/15 06:34:03;;;;;;;;;78.00;64.75;;;;;;;;5060420;28;51291;-51
2023/01/15 06:36:48;;;;;;;;;77.00;60.50;;;;;;;;5056197;28;51462;-52
2023/01/15 06:39:33;;;;;;;;;77.25;61.75;;;;;;;;5057523;28;51122;-55
2023/01/15 06:48:39;;;;;;;;;71.25;55.00;;;;;;;;5056759;28;51153;-52
2023/01/15 06:51:24;;;;;;;;;75.00;57.50;;;;;;;;5058743;28;52301;-52
2023/01/15 06:54:08;;;;;;;;;75.75;62.25;;;;;;;;5059579;28;51152;-52
2023/01/15 06:56:53;;;;;;;;;77.00;66.75;;;;;;;;5061407;28;51562;-49
2023/01/15 06:59:37;;;;;;;;;84.25;65.75;;;;;;;;5061377;28;51023;-49
2023/01/15 07:02:22;;;;;;;;;78.75;64.50;;;;;;;;5060625;28;51526;-55
2023/01/15 07:05:06;;;;;;;;;87.00;69.50;;;;;;;;5060528;28;51168;-50
2023/01/15 07:07:51;;;;;;;;;82.50;69.50;;;;;;;;5058774;28;51571;-49
2023/01/15 07:10:35;;;;;;;;;97.50;74.50;;;;;;;;5060695;28;51180;-51
2023/01/15 07:13:19;;;;;;;;;105.25;92.00;;;;;;;;5063585;27;51252;-53
2023/01/15 07:16:04;;;;;;;;;108.50;90.25;;;;;;;;5061063;28;51402;-49
2023/01/15 07:18:48;;;;;;;;;93.25;81.25;;;;;;;;5060445;28;51130;-53
2023/01/15 07:21:33;;;;;;;;;96.75;83.00;;;;;;;;5057183;28;51193;-53
2023/01/15 07:24:17;;;;;;;;;89.25;76.25;;;;;;;;5060868;28;51152;-51
2023/01/15 07:27:02;;;;;;;;;93.00;78.75;;;;;;;;5060555;28;51121;-52
2023/01/15 07:29:48;;;;;;;;;86.50;78.50;;;;;;;;5060665;28;51095;-50
2023/01/15 07:32:32;;;;;;;;;83.00;73.50;;;;;;;;5060332;28;51645;-52
2023/01/15 07:35:17;;;;;;;;;81.75;69.25;;;;;;;;5057952;28;51254;-53
2023/01/15 07:38:01;;;;;;;;;89.50;75.00;;;;;;;;5060645;28;51331;-50
2023/01/15 07:49:44;;;;;;;;;86.25;73.00;;;;;;;;5058873;28;51300;-50
2023/01/15 07:49:55;;;;;;;;;95.00;77.00;;;;;;;;5058774;28;51093;-51
2023/01/15 07:52:40;;;;;;;;;84.75;71.00;;;;;;;;5059505;28;51133;-57
2023/01/15 07:55:24;;;;;;;;;83.75;71.25;;;;;;;;5059771;28;51153;-55
2023/01/15 07:58:09;;;;;;;;;82.00;74.25;;;;;;;;5060370;28;51094;-52
2023/01/15 08:00:53;;;;;;;;;84.75;73.00;;;;;;;;5057607;28;51145;-51
2023/01/15 08:03:38;;;;;;;;;85.50;72.75;;;;;;;;5059932;28;51035;-52
2023/01/15 08:06:22;;;;;;;;;82.50;67.75;;;;;;;;5059601;28;51475;-52
2023/01/15 08:09:06;;;;;;;;;88.25;74.25;;;;;;;;5059030;28;51152;-53
2023/01/15 08:15:12;;;;;;;;;88.25;73.50;;;;;;;;5058903;28;51188;-53
2023/01/15 08:17:56;;;;;;;;;88.75;75.00;;;;;;;;5059193;28;51347;-52
2023/01/15 08:20:41;;;;;;;;;89.00;69.75;;;;;;;;5059514;28;52003;-54
2023/01/15 08:23:25;;;;;;;;;86.00;76.50;;;;;;;;5058663;28;51165;-56
2023/01/15 08:26:10;;;;;;;;;90.75;78.25;;;;;;;;5059304;28;52428;-51
2023/01/15 08:28:54;;;;;;;;;83.50;72.50;;;;;;;;5059275;28;51338;-55
2023/01/15 08:31:40;;;;;;;;;89.50;76.00;;;;;;;;5058986;28;51200;-51
2023/01/15 08:34:24;;;;;;;;;73.25;57.75;;;;;;;;5058603;28;52417;-49
2023/01/15 08:37:08;;;;;;;;;71.75;61.00;;;;;;;;5059032;28;51300;-53
2023/01/15 08:39:53;;;;;;;;;78.00;61.75;;;;;;;;5059393;28;51157;-47
2023/01/15 08:42:38;;;;;;;;;73.50;61.50;;;;;;;;5058131;28;51229;-50
2023/01/15 08:45:22;;;;;;;;;71.00;57.00;;;;;;;;5059170;28;51242;-54
2023/01/15 08:48:06;;;;;;;;;69.75;53.00;;;;;;;;5059387;28;51088;-49
2023/01/15 08:50:51;;;;;;;;;64.50;48.75;;;;;;;;5058351;28;51288;-54
2023/01/15 08:53:35;;;;;;;;;63.25;47.75;;;;;;;;5060052;28;51110;-48
2023/01/15 08:56:19;;;;;;;;;63.50;48.75;;;;;;;;5057600;28;51406;-50
2023/01/15 08:59:05;;;;;;;;;69.75;53.25;;;;;;;;5058581;28;51320;-53
2023/01/15 09:01:49;;;;;;;;;63.00;49.00;;;;;;;;5056802;28;51243;-52
2023/01/15 09:04:33;;;;;;;;;64.25;49.25;;;;;;;;5061718;27;51277;-51
2023/01/15 09:07:18;;;;;;;;;70.50;50.75;;;;;;;;5080190;27;51533;-51
2023/01/15 09:10:03;;;;;;;;;64.00;51.75;;;;;;;;5058626;28;51034;-55
2023/01/15 09:12:47;;;;;;;;;61.75;45.00;;;;;;;;5060190;28;51502;-52
2023/01/15 09:15:32;;;;;;;;;67.25;53.25;;;;;;;;5075200;27;51056;-52
2023/01/15 09:18:18;;;;;;;;;67.00;51.75;;;;;;;;5080567;27;51125;-49
2023/01/15 09:21:02;;;;;;;;;66.50;50.25;;;;;;;;5059018;28;51173;-54
2023/01/15 09:23:47;;;;;;;;;65.75;51.25;;;;;;;;5059709;28;51191;-50
2023/01/15 09:26:33;;;;;;;;;66.50;55.00;;;;;;;;5059806;28;51250;-52
2023/01/15 09:29:17;;;;;;;;;66.50;55.50;;;;;;;;5060240;28;51230;-51
2023/01/15 09:32:01;;;;;;;;;66.50;50.50;;;;;;;;5059456;28;51181;-54
2023/01/15 09:34:45;;;;;;;;;64.50;52.75;;;;;;;;5059648;28;51108;-52
2023/01/15 09:37:30;;;;;;;;;59.75;45.50;;;;;;;;5059938;28;51597;-54
2023/01/15 09:40:22;;;;;;;;;56.25;44.50;;;;;;;;5059074;28;51137;-48
2023/01/15 09:43:17;;;;;;;;;57.25;43.50;;;;;;;;5059502;28;51166;-56
2023/01/15 09:46:12;;;;;;;;;60.25;44.25;;;;;;;;5059398;28;51094;-53
2023/01/15 09:49:06;;;;;;;;;41.75;28.75;;;;;;;;5057602;28;51642;-54
2023/01/15 09:52:07;;;;;;;;;53.25;40.75;;;;;;;;5059313;28;51161;-47
2023/01/15 09:55:14;;;;;;;;;55.75;40.50;;;;;;;;5041910;28;51107;-49
2023/01/15 09:58:01;;;;;;;;;55.25;43.50;;;;;;;;5057132;28;51134;-47
2023/01/15 10:00:47;;;;;;;;;47.00;33.00;;;;;;;;5059534;28;51107;-50
2023/01/15 10:03:47;;;;;;;;;52.25;38.00;;;;;;;;5059614;28;51182;-54
2023/01/15 10:06:43;;;;;;;;;50.50;38.25;;;;;;;;5059272;28;51180;-49
2023/01/15 10:09:33;;;;;;;;;49.25;39.25;;;;;;;;5059620;28;51110;-49
2023/01/15 10:12:34;;;;;;;;;47.75;36.25;;;;;;;;5058356;28;51118;-50
2023/01/15 10:15:22;;;;;;;;;46.50;36.00;;;;;;;;5059235;28;51201;-50
2023/01/15 10:18:12;;;;;;;;;48.75;34.25;;;;;;;;5058882;28;51082;-51
2023/01/15 10:21:14;;;;;;;;;46.75;35.25;;;;;;;;5057385;28;51007;-52
2023/01/15 10:24:19;;;;;;;;;47.25;38.00;;;;;;;;5056241;28;51115;-53
2023/01/15 10:27:21;;;;;;;;;44.25;34.25;;;;;;;;5058758;28;51120;-53
2023/01/15 10:30:12;;;;;;;;;47.00;35.50;;;;;;;;5058904;28;51209;-50
2023/01/15 10:32:59;;;;;;;;;41.50;32.50;;;;;;;;5062851;28;51087;-56
2023/01/15 10:36:02;;;;;;;;;47.75;35.00;;;;;;;;5063149;28;51087;-51
2023/01/15 10:38:52;;;;;;;;;44.00;32.25;;;;;;;;5062734;28;51560;-52
2023/01/15 10:41:38;;;;;;;;;45.00;32.75;;;;;;;;5062816;28;51599;-51
2023/01/15 10:44:25;;;;;;;;;47.50;35.75;;;;;;;;5062659;28;51140;-53
2023/01/15 10:47:14;;;;;;;;;41.75;33.00;;;;;;;;5063130;28;51178;-56
2023/01/15 10:50:00;;;;;;;;;47.00;33.25;;;;;;;;5064458;27;51100;-51
2023/01/15 10:53:07;;;;;;;;;51.75;38.50;;;;;;;;5083208;27;51188;-50
2023/01/15 10:55:54;;;;;;;;;46.75;35.50;;;;;;;;5061241;27;51552;-53
2023/01/15 10:58:41;;;;;;;;;43.75;34.00;;;;;;;;5060510;28;51200;-47
2023/01/15 11:01:26;;;;;;;;;48.00;35.00;;;;;;;;5061851;28;51192;-52
2023/01/15 11:04:14;;;;;;;;;46.75;35.00;;;;;;;;5062207;27;51541;-52
2023/01/15 11:06:59;;;;;;;;;47.25;32.25;;;;;;;;5082265;27;52146;-50
2023/01/15 11:09:44;;;;;;;;;49.25;35.00;;;;;;;;5081781;27;51152;-55
2023/01/15 11:21:42;;;;;;;;;46.75;36.25;;;;;;;;5061811;28;51537;-49
2023/01/15 11:24:26;;;;;;;;;52.50;37.50;;;;;;;;5061481;28;51120;-52
2023/01/15 11:27:14;;;;;;;;;45.00;33.50;;;;;;;;5058707;28;51116;-51
2023/01/15 11:29:59;;;;;;;;;21.00;9.25;;;;;;;;5061143;28;51533;-50
2023/01/15 11:32:53;;;;;;;;;50.00;34.50;;;;;;;;5059296;28;51559;-49
2023/01/15 11:35:37;;;;;;;;;45.50;33.00;;;;;;;;5063266;27;51096;-51
2023/01/15 11:38:22;;;;;;;;;45.00;35.50;;;;;;;;5065531;27;51098;-49
2023/01/15 11:41:18;;;;;;;;;50.50;35.25;;;;;;;;5060986;28;51039;-50
2023/01/15 11:53:23;;;;;;;;;45.25;33.50;;;;;;;;5061285;28;51186;-55
2023/01/15 11:56:12;;;;;;;;;43.00;34.50;;;;;;;;5065395;27;51471;-52
2023/01/15 11:58:59;;;;;;;;;49.50;37.00;;;;;;;;5081312;27;51036;-52
2023/01/15 12:02:03;;;;;;;;;44.00;33.50;;;;;;;;5081073;27;51209;-54
2023/01/15 12:04:56;;;;;;;;;50.50;36.25;;;;;;;;5073049;27;51003;-49
2023/01/15 12:07:41;;;;;;;;;45.00;31.75;;;;;;;;5060390;28;51164;-52
2023/01/15 12:13:48;;;;;;;;;44.75;33.75;;;;;;;;5055972;28;51600;-53
2023/01/15 12:16:52;;;;;;;;;45.50;35.25;;;;;;;;5060171;28;51074;-50
2023/01/15 12:20:00;;;;;;;;;37.25;32.00;;;;;;;;5048283;28;51088;-50
2023/01/15 12:23:01;;;;;;;;;44.50;34.00;;;;;;;;5059944;28;51135;-55
2023/01/15 12:25:52;;;;;;;;;48.00;35.00;;;;;;;;5060082;28;51103;-47
2023/01/15 12:28:38;;;;;;;;;48.00;37.00;;;;;;;;5059983;28;51140;-55
2023/01/15 12:31:26;;;;;;;;;47.25;36.00;;;;;;;;5060194;28;51082;-49
2023/01/15 12:34:20;;;;;;;;;42.25;34.50;;;;;;;;5059932;28;51621;-48
2023/01/15 12:37:31;;;;;;;;;45.50;33.00;;;;;;;;5060017;28;51124;-52
2023/01/15 12:40:34;;;;;;;;;45.25;31.75;;;;;;;;5057554;28;51636;-51
2023/01/15 12:46:28;;;;;;;;;48.00;36.75;;;;;;;;5059376;28;51179;-53
2023/01/15 12:49:29;;;;;;;;;48.00;34.25;;;;;;;;5056111;28;51595;-54
2023/01/15 12:52:19;;;;;;;;;48.25;38.00;;;;;;;;5059291;28;51657;-54
2023/01/15 12:55:03;;;;;;;;;49.50;37.75;;;;;;;;5041982;28;51119;-51
2023/01/15 12:57:55;;;;;;;;;47.75;35.00;;;;;;;;5057152;28;51007;-52
2023/01/15 13:00:44;;;;;;;;;48.00;36.25;;;;;;;;5059628;28;51137;-51
2023/01/15 13:03:38;;;;;;;;;47.00;34.25;;;;;;;;5059722;28;51198;-52
2023/01/15 13:06:25;;;;;;;;;40.75;29.75;;;;;;;;5056555;28;51265;-54
2023/01/15 13:09:17;;;;;;;;;45.00;30.00;;;;;;;;5049062;28;51125;-54
2023/01/15 13:12:01;;;;;;;;;49.25;34.75;;;;;;;;5053957;28;51063;-51
2023/01/15 13:14:46;;;;;;;;;46.75;33.50;;;;;;;;5042750;28;51425;-50
2023/01/15 13:17:45;;;;;;;;;48.25;36.75;;;;;;;;5055257;28;51606;-52
2023/01/15 13:20:32;;;;;;;;;49.25;35.75;;;;;;;;5067996;27;51265;-48
2023/01/15 13:23:36;;;;;;;;;46.25;35.75;;;;;;;;5079424;27;51220;-47
2023/01/15 13:26:23;;;;;;;;;50.25;36.25;;;;;;;;5073220;27;51405;-49
2023/01/15 13:29:13;;;;;;;;;48.25;34.50;;;;;;;;5057070;28;51177;-50
2023/01/15 13:32:13;;;;;;;;;45.75;35.00;;;;;;;;5056755;28;51584;-51
2023/01/15 13:35:12;;;;;;;;;45.25;36.00;;;;;;;;5076538;27;51077;-51
2023/01/15 13:38:02;;;;;;;;;49.75;36.00;;;;;;;;5079458;27;51222;-48
2023/01/15 13:40:50;;;;;;;;;49.00;37.50;;;;;;;;5079213;27;51106;-49
2023/01/15 13:43:40;;;;;;;;;48.00;37.00;;;;;;;;5056537;27;51609;-48
2023/01/15 13:46:28;;;;;;;;;46.50;36.25;;;;;;;;5053685;28;51497;-50
2023/01/15 13:49:18;;;;;;;;;48.75;35.00;;;;;;;;5048488;28;51122;-53
2023/01/15 13:52:03;;;;;;;;;48.25;35.25;;;;;;;;5059150;28;51396;-50
2023/01/15 13:54:48;;;;;;;;;39.50;33.25;;;;;;;;5057596;28;51415;-51
2023/01/15 13:57:34;;;;;;;;;44.25;36.50;;;;;;;;5038549;28;51389;-50
2023/01/15 14:00:35;;;;;;;;;47.25;35.50;;;;;;;;5050369;28;51103;-53
2023/01/15 14:03:46;;;;;;;;;46.50;35.50;;;;;;;;5055439;28;51193;-54
2023/01/15 14:06:42;;;;;;;;;53.00;39.00;;;;;;;;5051937;28;51248;-55
2023/01/15 14:09:28;;;;;;;;;47.25;35.50;;;;;;;;5056911;28;51158;-49
2023/01/15 14:12:23;;;;;;;;;49.25;34.25;;;;;;;;5058134;28;51203;-48
2023/01/15 14:15:27;;;;;;;;;45.50;34.50;;;;;;;;5057755;28;51062;-48
2023/01/15 14:18:33;;;;;;;;;43.50;31.25;;;;;;;;5058729;28;51416;-52
2023/01/15 14:21:30;;;;;;;;;48.25;37.25;;;;;;;;5058780;28;51297;-53
2023/01/15 14:24:14;;;;;;;;;40.75;35.50;;;;;;;;5057356;28;51559;-51
2023/01/15 14:27:05;;;;;;;;;53.75;37.50;;;;;;;;5058593;28;51179;-52
2023/01/15 14:30:09;;;;;;;;;51.00;37.00;;;;;;;;5058698;28;51019;-48
2023/01/15 14:33:14;;;;;;;;;43.25;30.00;;;;;;;;5058693;28;51182;-48
2023/01/15 14:36:07;;;;;;;;;54.00;36.25;;;;;;;;5041554;28;51714;-51
2023/01/15 14:38:57;;;;;;;;;44.00;33.25;;;;;;;;5058065;28;51153;-50
2023/01/15 14:44:45;;;;;;;;;51.00;37.50;;;;;;;;5051130;28;51414;-55
2023/01/15 14:47:33;;;;;;;;;51.25;36.75;;;;;;;;5057791;28;51058;-51
2023/01/15 14:50:26;;;;;;;;;50.50;37.50;;;;;;;;5055601;28;51185;-53
2023/01/15 14:53:13;;;;;;;;;44.50;33.00;;;;;;;;5058154;28;51141;-53
2023/01/15 14:55:57;;;;;;;;;53.00;36.75;;;;;;;;5071507;28;51056;-53
2023/01/15 14:58:44;;;;;;;;;53.00;38.00;;;;;;;;5059889;28;51356;-51
2023/01/15 15:01:38;;;;;;;;;46.25;34.25;;;;;;;;5058614;28;51088;-53
2023/01/15 15:04:32;;;;;;;;;47.75;35.25;;;;;;;;5058122;28;51188;-50
2023/01/15 15:07:17;;;;;;;;;49.00;36.00;;;;;;;;5058451;28;51168;-50
2023/01/15 15:10:06;;;;;;;;;48.50;36.75;;;;;;;;5060067;28;51367;-55
2023/01/15 15:12:51;;;;;;;;;57.25;37.75;;;;;;;;5065653;27;51093;-49
2023/01/15 15:15:54;;;;;;;;;47.75;35.00;;;;;;;;5070590;27;51063;-52
2023/01/15 15:18:41;;;;;;;;;51.75;41.50;;;;;;;;5061887;28;51019;-57
2023/01/15 15:21:27;;;;;;;;;53.25;37.75;;;;;;;;5062223;28;51075;-53
2023/01/15 15:24:11;;;;;;;;;50.00;35.25;;;;;;;;5062255;28;51055;-54
2023/01/15 15:26:55;;;;;;;;;51.75;34.50;;;;;;;;5061686;28;51601;-51
2023/01/15 15:29:40;;;;;;;;;47.50;36.25;;;;;;;;5076809;27;51106;-52
2023/01/15 15:32:24;;;;;;;;;53.25;38.50;;;;;;;;5080761;27;51117;-51
2023/01/15 15:35:28;;;;;;;;;47.00;32.75;;;;;;;;5060289;28;52012;-54
2023/01/15 15:38:14;;;;;;;;;52.00;36.25;;;;;;;;5059521;28;51130;-53
2023/01/15 15:41:00;;;;;;;;;50.25;37.00;;;;;;;;5078823;27;51242;-55
2023/01/15 15:49:57;;;;;;;;;54.50;40.25;;;;;;;;5060680;28;51157;-52
2023/01/15 15:52:43;;;;;;;;;49.75;38.50;;;;;;;;5061249;28;51562;-49
2023/01/15 15:55:34;;;;;;;;;47.75;38.00;;;;;;;;5056449;28;51040;-52
2023/01/15 15:58:24;;;;;;;;;53.00;41.75;;;;;;;;5060623;28;51145;-48
2023/01/15 16:01:12;;;;;;;;;52.25;39.75;;;;;;;;5060898;28;51463;-50
2023/01/15 16:03:57;;;;;;;;;51.75;39.25;;;;;;;;5060695;28;51387;-53
2023/01/15 16:06:41;;;;;;;;;52.00;38.25;;;;;;;;5060903;28;51811;-51
2023/01/15 16:09:26;;;;;;;;;53.25;38.50;;;;;;;;5060125;28;51171;-50
2023/01/15 16:12:12;;;;;;;;;52.50;38.50;;;;;;;;5060937;28;51262;-51
2023/01/15 16:14:57;;;;;;;;;53.00;39.00;;;;;;;;5059113;28;51182;-47
2023/01/15 16:17:41;;;;;;;;;53.25;37.75;;;;;;;;5060097;28;51628;-51
2023/01/15 16:20:26;;;;;;;;;53.00;38.75;;;;;;;;5060265;28;51134;-51
2023/01/15 16:23:18;;;;;;;;;54.50;42.50;;;;;;;;5060440;28;51371;-49
2023/01/15 16:26:18;;;;;;;;;51.75;39.00;;;;;;;;5057522;28;51436;-51
2023/01/15 16:29:04;;;;;;;;;48.75;35.75;;;;;;;;5072012;27;51167;-52
2023/01/15 16:31:48;;;;;;;;;54.75;38.25;;;;;;;;5080453;27;51147;-51
2023/01/15 16:34:33;;;;;;;;;39.75;35.25;;;;;;;;5059651;28;51462;-52
2023/01/15 16:37:24;;;;;;;;;42.00;31.50;;;;;;;;5060518;28;51030;-51
2023/01/15 16:40:15;;;;;;;;;50.00;35.50;;;;;;;;5059289;28;51191;-50
2023/01/15 16:43:20;;;;;;;;;53.75;38.75;;;;;;;;5060076;28;51760;-50
2023/01/15 16:46:06;;;;;;;;;47.25;39.75;;;;;;;;5057521;28;51169;-53
2023/01/15 16:49:10;;;;;;;;;49.00;36.75;;;;;;;;5060935;27;51003;-52
2023/01/15 16:51:56;;;;;;;;;48.25;37.75;;;;;;;;5054816;28;51075;-48
2023/01/15 16:54:41;;;;;;;;;52.50;38.00;;;;;;;;5054064;28;51443;-54
2023/01/15 16:57:27;;;;;;;;;55.25;39.50;;;;;;;;5052716;28;51594;-49
2023/01/15 17:00:25;;;;;;;;;45.50;35.50;;;;;;;;5057971;28;51249;-56
2023/01/15 17:03:11;;;;;;;;;46.00;34.00;;;;;;;;5059311;28;51122;-56
2023/01/15 17:06:04;;;;;;;;;52.00;38.50;;;;;;;;5057585;28;51113;-51
2023/01/15 17:08:49;;;;;;;;;51.75;38.00;;;;;;;;5054890;28;51594;-55
2023/01/15 17:11:33;;;;;;;;;53.75;40.00;;;;;;;;5058376;28;51194;-50
2023/01/15 17:14:25;;;;;;;;;50.25;36.75;;;;;;;;5058083;28;51457;-55
2023/01/15 17:17:14;;;;;;;;;55.00;40.50;;;;;;;;5088583;27;51120;-52
2023/01/15 17:19:59;;;;;;;;;52.00;38.50;;;;;;;;5057680;28;51074;-51